sensor_id;sensor_type;location;lat;lon;timestamp;P1;durP1;ratioP1;P2;durP2;ratioP2
69979;SDS011;57318;56.232;43.944;2022-09-09T00:02:21;3.43;;;3.13;;
69979;SDS011;57318;56.232;43.944;2022-09-09T00:04:54;4.40;;;3.20;;
69979;SDS011;57318;56.232;43.944;2022-09-09T00:07:35;4.43;;;3.13;;
69979;SDS011;57318;56.232;43.944;2022-09-09T00:13:25;4.18;;;3.10;;
69979;SDS011;57318;56.232;43.944;2022-09-09T00:16:03;4.50;;;3.40;;
69979;SDS011;57318;56.232;43.944;2022-09-09T00:22:12;7.00;;;3.22;;
69979;SDS011;57318;56.232;43.944;2022-09-09T00:24:50;5.85;;;3.65;;
69979;SDS011;57318;56.232;43.944;2022-09-09T00:27:30;4.10;;;3.30;;
69979;SDS011;57318;56.232;43.944;2022-09-09T00:30:16;4.88;;;3.50;;
69979;SDS011;57318;56.232;43.944;2022-09-09T00:32:47;4.00;;;3.40;;
69979;SDS011;57318;56.232;43.944;2022-09-09T00:37:50;5.57;;;3.35;;
69979;SDS011;57318;56.232;43.944;2022-09-09T00:40:24;4.72;;;3.10;;
69979;SDS011;57318;56.232;43.944;2022-09-09T00:43:02;5.05;;;3.45;;
69979;SDS011;57318;56.232;43.944;2022-09-09T00:48:10;3.50;;;3.00;;
69979;SDS011;57318;56.232;43.944;2022-09-09T00:56:28;4.55;;;3.15;;
69979;SDS011;57318;56.232;43.944;2022-09-09T00:59:14;4.20;;;3.17;;
69979;SDS011;57318;56.232;43.944;2022-09-09T01:01:50;5.57;;;3.35;;
69979;SDS011;57318;56.232;43.944;2022-09-09T01:04:20;3.92;;;2.97;;
69979;SDS011;57318;56.232;43.944;2022-09-09T01:06:55;8.00;;;3.33;;
69979;SDS011;57318;56.232;43.944;2022-09-09T01:12:15;3.50;;;2.80;;
69979;SDS011;57318;56.232;43.944;2022-09-09T01:15:08;4.65;;;3.38;;
69979;SDS011;57318;56.232;43.944;2022-09-09T01:20:39;3.95;;;2.92;;
69979;SDS011;57318;56.232;43.944;2022-09-09T01:23:23;3.72;;;3.28;;
69979;SDS011;57318;56.232;43.944;2022-09-09T01:26:05;3.50;;;2.88;;
69979;SDS011;57318;56.232;43.944;2022-09-09T01:28:52;3.50;;;2.83;;
69979;SDS011;57318;56.232;43.944;2022-09-09T01:31:31;3.87;;;3.20;;
69979;SDS011;57318;56.232;43.944;2022-09-09T01:34:01;3.35;;;2.55;;
69979;SDS011;57318;56.232;43.944;2022-09-09T01:39:10;4.60;;;2.75;;
69979;SDS011;57318;56.232;43.944;2022-09-09T01:41:37;6.18;;;3.40;;
69979;SDS011;57318;56.232;43.944;2022-09-09T01:44:03;4.57;;;3.03;;
69979;SDS011;57318;56.232;43.944;2022-09-09T01:46:30;4.18;;;3.00;;
69979;SDS011;57318;56.232;43.944;2022-09-09T01:48:55;4.00;;;3.27;;
69979;SDS011;57318;56.232;43.944;2022-09-09T01:51:22;3.75;;;2.90;;
69979;SDS011;57318;56.232;43.944;2022-09-09T01:53:49;5.10;;;3.10;;
69979;SDS011;57318;56.232;43.944;2022-09-09T02:02:01;5.28;;;3.47;;
69979;SDS011;57318;56.232;43.944;2022-09-09T02:07:03;4.93;;;2.95;;
69979;SDS011;57318;56.232;43.944;2022-09-09T02:09:37;3.88;;;3.20;;
69979;SDS011;57318;56.232;43.944;2022-09-09T02:12:08;5.05;;;3.13;;
69979;SDS011;57318;56.232;43.944;2022-09-09T02:14:42;4.28;;;3.05;;
69979;SDS011;57318;56.232;43.944;2022-09-09T02:17:15;3.70;;;3.20;;
69979;SDS011;57318;56.232;43.944;2022-09-09T02:19:47;4.85;;;2.95;;
69979;SDS011;57318;56.232;43.944;2022-09-09T02:22:17;4.65;;;3.10;;
69979;SDS011;57318;56.232;43.944;2022-09-09T02:24:47;5.07;;;3.13;;
69979;SDS011;57318;56.232;43.944;2022-09-09T02:27:17;4.78;;;3.28;;
69979;SDS011;57318;56.232;43.944;2022-09-09T02:29:44;4.00;;;3.05;;
69979;SDS011;57318;56.232;43.944;2022-09-09T02:32:13;3.78;;;2.92;;
69979;SDS011;57318;56.232;43.944;2022-09-09T02:34:49;5.40;;;3.05;;
69979;SDS011;57318;56.232;43.944;2022-09-09T02:37:20;3.85;;;3.08;;
69979;SDS011;57318;56.232;43.944;2022-09-09T02:39:50;3.90;;;3.15;;
69979;SDS011;57318;56.232;43.944;2022-09-09T02:42:16;4.65;;;3.03;;
69979;SDS011;57318;56.232;43.944;2022-09-09T02:44:42;3.60;;;2.93;;
69979;SDS011;57318;56.232;43.944;2022-09-09T02:53:19;3.33;;;2.97;;
69979;SDS011;57318;56.232;43.944;2022-09-09T02:56:21;4.05;;;2.92;;
69979;SDS011;57318;56.232;43.944;2022-09-09T02:58:50;3.55;;;2.90;;
69979;SDS011;57318;56.232;43.944;2022-09-09T03:01:17;3.47;;;2.88;;
69979;SDS011;57318;56.232;43.944;2022-09-09T03:03:43;5.28;;;3.15;;
69979;SDS011;57318;56.232;43.944;2022-09-09T03:06:09;3.65;;;2.78;;
69979;SDS011;57318;56.232;43.944;2022-09-09T03:08:37;3.42;;;2.42;;
69979;SDS011;57318;56.232;43.944;2022-09-09T03:11:02;3.30;;;2.50;;
69979;SDS011;57318;56.232;43.944;2022-09-09T03:13:28;3.07;;;2.77;;
69979;SDS011;57318;56.232;43.944;2022-09-09T03:15:54;2.70;;;2.50;;
69979;SDS011;57318;56.232;43.944;2022-09-09T03:18:20;3.30;;;2.75;;
69979;SDS011;57318;56.232;43.944;2022-09-09T03:20:46;3.63;;;2.67;;
69979;SDS011;57318;56.232;43.944;2022-09-09T03:23:13;3.92;;;2.45;;
69979;SDS011;57318;56.232;43.944;2022-09-09T03:25:39;3.25;;;2.70;;
69979;SDS011;57318;56.232;43.944;2022-09-09T03:28:11;3.10;;;2.80;;
69979;SDS011;57318;56.232;43.944;2022-09-09T03:30:37;3.73;;;2.73;;
69979;SDS011;57318;56.232;43.944;2022-09-09T03:33:03;3.93;;;2.60;;
69979;SDS011;57318;56.232;43.944;2022-09-09T03:35:29;5.55;;;2.88;;
69979;SDS011;57318;56.232;43.944;2022-09-09T03:37:54;3.63;;;2.90;;
69979;SDS011;57318;56.232;43.944;2022-09-09T03:40:20;4.03;;;2.90;;
69979;SDS011;57318;56.232;43.944;2022-09-09T03:42:47;4.07;;;2.70;;
69979;SDS011;57318;56.232;43.944;2022-09-09T03:45:13;3.42;;;3.00;;
69979;SDS011;57318;56.232;43.944;2022-09-09T03:47:39;3.57;;;2.80;;
69979;SDS011;57318;56.232;43.944;2022-09-09T03:50:06;4.80;;;2.80;;
69979;SDS011;57318;56.232;43.944;2022-09-09T03:52:36;5.85;;;2.83;;
69979;SDS011;57318;56.232;43.944;2022-09-09T03:55:03;4.53;;;2.63;;
69979;SDS011;57318;56.232;43.944;2022-09-09T03:57:30;2.85;;;2.50;;
69979;SDS011;57318;56.232;43.944;2022-09-09T03:59:57;3.42;;;2.70;;
69979;SDS011;57318;56.232;43.944;2022-09-09T04:02:23;4.00;;;2.78;;
69979;SDS011;57318;56.232;43.944;2022-09-09T04:04:48;4.93;;;2.97;;
69979;SDS011;57318;56.232;43.944;2022-09-09T04:07:14;4.80;;;3.20;;
69979;SDS011;57318;56.232;43.944;2022-09-09T04:09:41;3.50;;;2.72;;
69979;SDS011;57318;56.232;43.944;2022-09-09T04:12:06;3.00;;;2.47;;
69979;SDS011;57318;56.232;43.944;2022-09-09T04:14:32;5.83;;;2.53;;
69979;SDS011;57318;56.232;43.944;2022-09-09T04:16:58;4.97;;;2.57;;
69979;SDS011;57318;56.232;43.944;2022-09-09T04:19:24;7.68;;;3.70;;
69979;SDS011;57318;56.232;43.944;2022-09-09T04:21:50;3.10;;;2.60;;
69979;SDS011;57318;56.232;43.944;2022-09-09T04:24:16;4.07;;;2.70;;
69979;SDS011;57318;56.232;43.944;2022-09-09T04:26:43;3.00;;;2.47;;
69979;SDS011;57318;56.232;43.944;2022-09-09T04:29:08;2.90;;;2.57;;
69979;SDS011;57318;56.232;43.944;2022-09-09T04:31:35;3.78;;;2.53;;
69979;SDS011;57318;56.232;43.944;2022-09-09T04:34:03;3.17;;;2.58;;
69979;SDS011;57318;56.232;43.944;2022-09-09T04:36:31;4.18;;;2.60;;
69979;SDS011;57318;56.232;43.944;2022-09-09T04:38:57;2.63;;;2.30;;
69979;SDS011;57318;56.232;43.944;2022-09-09T04:41:23;2.90;;;2.60;;
69979;SDS011;57318;56.232;43.944;2022-09-09T04:43:49;4.97;;;2.63;;
69979;SDS011;57318;56.232;43.944;2022-09-09T04:46:15;3.58;;;2.40;;
69979;SDS011;57318;56.232;43.944;2022-09-09T04:48:44;5.93;;;3.08;;
69979;SDS011;57318;56.232;43.944;2022-09-09T04:51:11;8.95;;;2.47;;
69979;SDS011;57318;56.232;43.944;2022-09-09T04:53:38;4.03;;;3.15;;
69979;SDS011;57318;56.232;43.944;2022-09-09T04:58:38;5.07;;;3.20;;
69979;SDS011;57318;56.232;43.944;2022-09-09T05:01:08;5.05;;;2.75;;
69979;SDS011;57318;56.232;43.944;2022-09-09T05:03:35;4.40;;;3.22;;
69979;SDS011;57318;56.232;43.944;2022-09-09T05:08:33;5.20;;;3.38;;
69979;SDS011;57318;56.232;43.944;2022-09-09T05:11:00;6.75;;;3.03;;
69979;SDS011;57318;56.232;43.944;2022-09-09T05:13:28;5.60;;;2.63;;
69979;SDS011;57318;56.232;43.944;2022-09-09T05:15:54;5.18;;;2.85;;
69979;SDS011;57318;56.232;43.944;2022-09-09T05:18:20;4.30;;;2.75;;
69979;SDS011;57318;56.232;43.944;2022-09-09T05:20:47;4.90;;;2.60;;
69979;SDS011;57318;56.232;43.944;2022-09-09T05:25:39;5.28;;;1.95;;
69979;SDS011;57318;56.232;43.944;2022-09-09T05:28:08;2.88;;;1.95;;
69979;SDS011;57318;56.232;43.944;2022-09-09T05:30:34;1.90;;;1.70;;
69979;SDS011;57318;56.232;43.944;2022-09-09T05:33:00;4.93;;;2.63;;
69979;SDS011;57318;56.232;43.944;2022-09-09T05:35:26;2.83;;;1.50;;
69979;SDS011;57318;56.232;43.944;2022-09-09T05:37:52;1.73;;;1.50;;
69979;SDS011;57318;56.232;43.944;2022-09-09T05:40:22;2.03;;;1.75;;
69979;SDS011;57318;56.232;43.944;2022-09-09T05:42:47;1.60;;;1.50;;
69979;SDS011;57318;56.232;43.944;2022-09-09T05:45:13;2.03;;;1.57;;
69979;SDS011;57318;56.232;43.944;2022-09-09T05:47:39;1.70;;;1.60;;
69979;SDS011;57318;56.232;43.944;2022-09-09T05:50:04;1.60;;;1.50;;
69979;SDS011;57318;56.232;43.944;2022-09-09T05:52:30;2.05;;;1.60;;
69979;SDS011;57318;56.232;43.944;2022-09-09T05:54:57;1.60;;;1.50;;
69979;SDS011;57318;56.232;43.944;2022-09-09T05:57:24;5.97;;;1.75;;
69979;SDS011;57318;56.232;43.944;2022-09-09T05:59:50;3.10;;;1.60;;
69979;SDS011;57318;56.232;43.944;2022-09-09T06:02:15;2.03;;;1.60;;
69979;SDS011;57318;56.232;43.944;2022-09-09T06:04:41;4.40;;;1.37;;
69979;SDS011;57318;56.232;43.944;2022-09-09T06:07:07;2.10;;;1.33;;
69979;SDS011;57318;56.232;43.944;2022-09-09T06:09:33;1.70;;;1.30;;
69979;SDS011;57318;56.232;43.944;2022-09-09T06:11:59;1.40;;;1.30;;
69979;SDS011;57318;56.232;43.944;2022-09-09T06:14:24;1.83;;;1.30;;
69979;SDS011;57318;56.232;43.944;2022-09-09T06:16:52;1.88;;;1.10;;
69979;SDS011;57318;56.232;43.944;2022-09-09T06:19:18;1.27;;;1.20;;
69979;SDS011;57318;56.232;43.944;2022-09-09T06:21:44;1.60;;;1.50;;
69979;SDS011;57318;56.232;43.944;2022-09-09T06:24:10;1.30;;;1.13;;
69979;SDS011;57318;56.232;43.944;2022-09-09T06:26:39;4.88;;;1.30;;
69979;SDS011;57318;56.232;43.944;2022-09-09T06:29:07;6.43;;;1.50;;
69979;SDS011;57318;56.232;43.944;2022-09-09T06:34:03;4.20;;;1.42;;
69979;SDS011;57318;56.232;43.944;2022-09-09T06:36:31;1.50;;;1.40;;
69979;SDS011;57318;56.232;43.944;2022-09-09T06:38:58;1.75;;;1.17;;
69979;SDS011;57318;56.232;43.944;2022-09-09T06:41:25;3.78;;;1.70;;
69979;SDS011;57318;56.232;43.944;2022-09-09T06:43:52;2.25;;;1.35;;
69979;SDS011;57318;56.232;43.944;2022-09-09T06:46:24;4.13;;;1.80;;
69979;SDS011;57318;56.232;43.944;2022-09-09T06:48:55;5.10;;;1.40;;
69979;SDS011;57318;56.232;43.944;2022-09-09T06:51:24;4.88;;;1.30;;
69979;SDS011;57318;56.232;43.944;2022-09-09T06:53:51;2.25;;;1.00;;
69979;SDS011;57318;56.232;43.944;2022-09-09T06:56:26;3.20;;;1.20;;
69979;SDS011;57318;56.232;43.944;2022-09-09T06:58:58;2.60;;;1.05;;
69979;SDS011;57318;56.232;43.944;2022-09-09T07:01:33;3.47;;;1.13;;
69979;SDS011;57318;56.232;43.944;2022-09-09T07:04:00;4.47;;;2.15;;
69979;SDS011;57318;56.232;43.944;2022-09-09T07:09:00;2.72;;;1.05;;
69979;SDS011;57318;56.232;43.944;2022-09-09T07:11:30;4.97;;;1.00;;
69979;SDS011;57318;56.232;43.944;2022-09-09T07:13:58;2.55;;;1.40;;
69979;SDS011;57318;56.232;43.944;2022-09-09T07:18:51;3.38;;;1.50;;
69979;SDS011;57318;56.232;43.944;2022-09-09T07:21:17;3.42;;;1.17;;
69979;SDS011;57318;56.232;43.944;2022-09-09T07:23:45;2.72;;;1.15;;
69979;SDS011;57318;56.232;43.944;2022-09-09T07:26:18;1.13;;;1.00;;
69979;SDS011;57318;56.232;43.944;2022-09-09T07:28:48;1.73;;;1.00;;
69979;SDS011;57318;56.232;43.944;2022-09-09T07:31:15;1.55;;;1.10;;
69979;SDS011;57318;56.232;43.944;2022-09-09T07:33:43;3.30;;;0.90;;
69979;SDS011;57318;56.232;43.944;2022-09-09T07:36:12;1.30;;;0.90;;
69979;SDS011;57318;56.232;43.944;2022-09-09T07:38:40;5.57;;;1.10;;
69979;SDS011;57318;56.232;43.944;2022-09-09T07:41:13;3.80;;;0.90;;
69979;SDS011;57318;56.232;43.944;2022-09-09T07:43:41;3.03;;;1.13;;
69979;SDS011;57318;56.232;43.944;2022-09-09T07:46:09;3.40;;;1.63;;
69979;SDS011;57318;56.232;43.944;2022-09-09T07:48:37;2.35;;;1.23;;
69979;SDS011;57318;56.232;43.944;2022-09-09T07:51:07;1.42;;;1.02;;
69979;SDS011;57318;56.232;43.944;2022-09-09T07:53:37;3.47;;;1.40;;
69979;SDS011;57318;56.232;43.944;2022-09-09T07:58:29;1.33;;;1.13;;
69979;SDS011;57318;56.232;43.944;2022-09-09T08:00:55;3.67;;;1.50;;
69979;SDS011;57318;56.232;43.944;2022-09-09T08:03:21;1.37;;;1.30;;
69979;SDS011;57318;56.232;43.944;2022-09-09T08:08:13;3.15;;;1.30;;
69979;SDS011;57318;56.232;43.944;2022-09-09T08:10:38;3.40;;;1.60;;
69979;SDS011;57318;56.232;43.944;2022-09-09T08:13:04;1.47;;;1.23;;
69979;SDS011;57318;56.232;43.944;2022-09-09T08:15:31;2.47;;;1.58;;
69979;SDS011;57318;56.232;43.944;2022-09-09T08:17:57;1.20;;;1.10;;
69979;SDS011;57318;56.232;43.944;2022-09-09T08:20:23;2.13;;;0.93;;
69979;SDS011;57318;56.232;43.944;2022-09-09T08:22:48;1.97;;;1.00;;
69979;SDS011;57318;56.232;43.944;2022-09-09T08:25:15;3.40;;;1.40;;
69979;SDS011;57318;56.232;43.944;2022-09-09T08:27:40;5.90;;;1.50;;
69979;SDS011;57318;56.232;43.944;2022-09-09T08:30:06;2.77;;;1.50;;
69979;SDS011;57318;56.232;43.944;2022-09-09T08:32:32;2.33;;;1.30;;
69979;SDS011;57318;56.232;43.944;2022-09-09T08:35:00;1.67;;;1.50;;
69979;SDS011;57318;56.232;43.944;2022-09-09T08:37:26;1.93;;;1.73;;
69979;SDS011;57318;56.232;43.944;2022-09-09T08:39:51;5.03;;;1.10;;
69979;SDS011;57318;56.232;43.944;2022-09-09T08:50:19;1.80;;;1.70;;
69979;SDS011;57318;56.232;43.944;2022-09-09T08:53:03;2.92;;;1.60;;
69979;SDS011;57318;56.232;43.944;2022-09-09T08:58:01;2.78;;;1.92;;
69979;SDS011;57318;56.232;43.944;2022-09-09T09:06:34;5.47;;;2.85;;
69979;SDS011;57318;56.232;43.944;2022-09-09T09:09:11;4.95;;;2.42;;
69979;SDS011;57318;56.232;43.944;2022-09-09T09:11:46;3.08;;;1.40;;
69979;SDS011;57318;56.232;43.944;2022-09-09T09:19:24;4.68;;;2.17;;
69979;SDS011;57318;56.232;43.944;2022-09-09T09:24:20;1.50;;;1.40;;
69979;SDS011;57318;56.232;43.944;2022-09-09T09:26:52;2.20;;;1.60;;
69979;SDS011;57318;56.232;43.944;2022-09-09T09:29:18;1.75;;;1.42;;
69979;SDS011;57318;56.232;43.944;2022-09-09T09:31:50;1.70;;;1.20;;
69979;SDS011;57318;56.232;43.944;2022-09-09T09:34:20;1.50;;;1.40;;
69979;SDS011;57318;56.232;43.944;2022-09-09T09:36:52;2.92;;;1.30;;
69979;SDS011;57318;56.232;43.944;2022-09-09T09:39:22;4.10;;;1.00;;
69979;SDS011;57318;56.232;43.944;2022-09-09T09:41:58;1.13;;;1.00;;
69979;SDS011;57318;56.232;43.944;2022-09-09T09:44:35;0.95;;;0.95;;
69979;SDS011;57318;56.232;43.944;2022-09-09T09:49:39;4.72;;;1.80;;
69979;SDS011;57318;56.232;43.944;2022-09-09T09:52:06;4.88;;;1.33;;
69979;SDS011;57318;56.232;43.944;2022-09-09T09:54:38;2.80;;;1.50;;
69979;SDS011;57318;56.232;43.944;2022-09-09T09:57:16;2.45;;;1.20;;
69979;SDS011;57318;56.232;43.944;2022-09-09T09:59:43;2.70;;;1.38;;
69979;SDS011;57318;56.232;43.944;2022-09-09T10:02:19;4.53;;;1.50;;
69979;SDS011;57318;56.232;43.944;2022-09-09T10:05:00;1.40;;;0.88;;
69979;SDS011;57318;56.232;43.944;2022-09-09T10:07:40;8.18;;;1.10;;
69979;SDS011;57318;56.232;43.944;2022-09-09T10:10:10;0.90;;;0.80;;
69979;SDS011;57318;56.232;43.944;2022-09-09T10:15:32;4.05;;;1.38;;
69979;SDS011;57318;56.232;43.944;2022-09-09T10:23:45;1.10;;;0.95;;
69979;SDS011;57318;56.232;43.944;2022-09-09T10:35:04;1.33;;;1.25;;
69979;SDS011;57318;56.232;43.944;2022-09-09T10:43:32;1.63;;;1.00;;
69979;SDS011;57318;56.232;43.944;2022-09-09T10:46:07;0.80;;;0.80;;
69979;SDS011;57318;56.232;43.944;2022-09-09T10:56:37;1.23;;;0.88;;
69979;SDS011;57318;56.232;43.944;2022-09-09T10:59:07;4.72;;;0.95;;
69979;SDS011;57318;56.232;43.944;2022-09-09T11:01:41;4.22;;;1.05;;
69979;SDS011;57318;56.232;43.944;2022-09-09T11:04:31;1.50;;;1.38;;
69979;SDS011;57318;56.232;43.944;2022-09-09T11:07:05;1.40;;;1.30;;
69979;SDS011;57318;56.232;43.944;2022-09-09T11:09:39;3.50;;;1.48;;
69979;SDS011;57318;56.232;43.944;2022-09-09T11:12:12;2.35;;;1.50;;
69979;SDS011;57318;56.232;43.944;2022-09-09T11:14:48;1.88;;;1.50;;
69979;SDS011;57318;56.232;43.944;2022-09-09T11:17:42;0.70;;;0.70;;
69979;SDS011;57318;56.232;43.944;2022-09-09T11:20:13;1.50;;;1.40;;
69979;SDS011;57318;56.232;43.944;2022-09-09T11:22:43;1.25;;;1.15;;
69979;SDS011;57318;56.232;43.944;2022-09-09T11:28:03;2.63;;;0.80;;
69979;SDS011;57318;56.232;43.944;2022-09-09T11:36:00;1.88;;;1.20;;
69979;SDS011;57318;56.232;43.944;2022-09-09T11:38:45;2.72;;;1.85;;
69979;SDS011;57318;56.232;43.944;2022-09-09T11:41:35;2.17;;;1.50;;
69979;SDS011;57318;56.232;43.944;2022-09-09T11:44:18;2.42;;;1.52;;
69979;SDS011;57318;56.232;43.944;2022-09-09T11:46:51;4.50;;;1.40;;
69979;SDS011;57318;56.232;43.944;2022-09-09T11:52:11;1.77;;;1.48;;
69979;SDS011;57318;56.232;43.944;2022-09-09T11:54:47;2.53;;;1.30;;
69979;SDS011;57318;56.232;43.944;2022-09-09T11:59:53;1.40;;;1.30;;
69979;SDS011;57318;56.232;43.944;2022-09-09T12:02:24;4.07;;;1.42;;
69979;SDS011;57318;56.232;43.944;2022-09-09T12:04:55;3.67;;;1.20;;
69979;SDS011;57318;56.232;43.944;2022-09-09T12:12:34;2.78;;;1.80;;
69979;SDS011;57318;56.232;43.944;2022-09-09T12:15:03;6.05;;;1.90;;
69979;SDS011;57318;56.232;43.944;2022-09-09T12:17:36;1.63;;;1.15;;
69979;SDS011;57318;56.232;43.944;2022-09-09T12:20:13;2.30;;;0.90;;
69979;SDS011;57318;56.232;43.944;2022-09-09T12:22:51;3.65;;;0.98;;
69979;SDS011;57318;56.232;43.944;2022-09-09T12:29:13;1.80;;;1.02;;
69979;SDS011;57318;56.232;43.944;2022-09-09T12:31:33;2.25;;;1.00;;
69979;SDS011;57318;56.232;43.944;2022-09-09T12:34:21;1.55;;;1.00;;
69979;SDS011;57318;56.232;43.944;2022-09-09T12:37:15;0.80;;;0.70;;
69979;SDS011;57318;56.232;43.944;2022-09-09T12:39:51;1.77;;;0.75;;
69979;SDS011;57318;56.232;43.944;2022-09-09T12:45:20;2.35;;;1.10;;
69979;SDS011;57318;56.232;43.944;2022-09-09T12:48:01;6.53;;;1.20;;
69979;SDS011;57318;56.232;43.944;2022-09-09T12:50:32;1.73;;;1.13;;
69979;SDS011;57318;56.232;43.944;2022-09-09T12:53:02;1.05;;;0.90;;
69979;SDS011;57318;56.232;43.944;2022-09-09T12:55:35;1.48;;;0.82;;
69979;SDS011;57318;56.232;43.944;2022-09-09T12:58:04;1.50;;;0.70;;
69979;SDS011;57318;56.232;43.944;2022-09-09T13:00:32;0.68;;;0.68;;
69979;SDS011;57318;56.232;43.944;2022-09-09T13:03:02;2.45;;;0.80;;
69979;SDS011;57318;56.232;43.944;2022-09-09T13:05:41;1.65;;;0.70;;
69979;SDS011;57318;56.232;43.944;2022-09-09T13:08:13;4.17;;;1.10;;
69979;SDS011;57318;56.232;43.944;2022-09-09T13:13:27;1.37;;;1.27;;
69979;SDS011;57318;56.232;43.944;2022-09-09T13:16:00;1.92;;;1.25;;
69979;SDS011;57318;56.232;43.944;2022-09-09T13:18:30;1.75;;;1.45;;
69979;SDS011;57318;56.232;43.944;2022-09-09T13:20:59;1.08;;;1.05;;
69979;SDS011;57318;56.232;43.944;2022-09-09T13:23:26;1.42;;;1.30;;
69979;SDS011;57318;56.232;43.944;2022-09-09T13:26:00;5.25;;;1.20;;
69979;SDS011;57318;56.232;43.944;2022-09-09T13:28:48;1.17;;;1.08;;
69979;SDS011;57318;56.232;43.944;2022-09-09T13:33:48;2.60;;;1.70;;
69979;SDS011;57318;56.232;43.944;2022-09-09T13:36:14;2.47;;;1.73;;
69979;SDS011;57318;56.232;43.944;2022-09-09T13:41:20;4.22;;;1.95;;
69979;SDS011;57318;56.232;43.944;2022-09-09T13:43:48;2.58;;;1.60;;
69979;SDS011;57318;56.232;43.944;2022-09-09T13:48:54;3.50;;;1.67;;
69979;SDS011;57318;56.232;43.944;2022-09-09T13:51:32;2.25;;;1.52;;
69979;SDS011;57318;56.232;43.944;2022-09-09T13:54:00;3.95;;;1.40;;
69979;SDS011;57318;56.232;43.944;2022-09-09T13:56:26;3.20;;;1.40;;
69979;SDS011;57318;56.232;43.944;2022-09-09T13:58:52;5.25;;;1.20;;
69979;SDS011;57318;56.232;43.944;2022-09-09T14:01:18;2.57;;;1.50;;
69979;SDS011;57318;56.232;43.944;2022-09-09T14:03:43;2.30;;;1.40;;
69979;SDS011;57318;56.232;43.944;2022-09-09T14:06:10;2.90;;;1.27;;
69979;SDS011;57318;56.232;43.944;2022-09-09T14:08:36;5.65;;;1.20;;
69979;SDS011;57318;56.232;43.944;2022-09-09T14:11:05;4.35;;;1.30;;
69979;SDS011;57318;56.232;43.944;2022-09-09T14:13:34;5.05;;;1.52;;
69979;SDS011;57318;56.232;43.944;2022-09-09T14:15:59;1.57;;;1.20;;
69979;SDS011;57318;56.232;43.944;2022-09-09T14:18:25;4.23;;;1.37;;
69979;SDS011;57318;56.232;43.944;2022-09-09T14:20:51;1.47;;;1.20;;
69979;SDS011;57318;56.232;43.944;2022-09-09T14:23:16;1.53;;;1.30;;
69979;SDS011;57318;56.232;43.944;2022-09-09T14:25:42;8.23;;;2.63;;
69979;SDS011;57318;56.232;43.944;2022-09-09T14:28:09;3.08;;;1.60;;
69979;SDS011;57318;56.232;43.944;2022-09-09T14:30:36;3.00;;;1.40;;
69979;SDS011;57318;56.232;43.944;2022-09-09T14:33:11;3.28;;;1.50;;
69979;SDS011;57318;56.232;43.944;2022-09-09T14:35:38;1.90;;;1.60;;
69979;SDS011;57318;56.232;43.944;2022-09-09T14:38:04;2.67;;;1.60;;
69979;SDS011;57318;56.232;43.944;2022-09-09T14:40:30;2.13;;;1.50;;
69979;SDS011;57318;56.232;43.944;2022-09-09T14:42:56;2.05;;;1.30;;
69979;SDS011;57318;56.232;43.944;2022-09-09T14:45:23;3.58;;;1.08;;
69979;SDS011;57318;56.232;43.944;2022-09-09T14:47:50;2.25;;;1.20;;
69979;SDS011;57318;56.232;43.944;2022-09-09T14:52:43;9.88;;;1.40;;
69979;SDS011;57318;56.232;43.944;2022-09-09T14:55:09;1.77;;;1.00;;
69979;SDS011;57318;56.232;43.944;2022-09-09T14:57:36;2.53;;;1.10;;
69979;SDS011;57318;56.232;43.944;2022-09-09T15:00:04;4.18;;;1.20;;
69979;SDS011;57318;56.232;43.944;2022-09-09T15:04:56;2.42;;;1.00;;
69979;SDS011;57318;56.232;43.944;2022-09-09T15:07:25;1.63;;;0.98;;
69979;SDS011;57318;56.232;43.944;2022-09-09T15:09:51;3.53;;;1.10;;
69979;SDS011;57318;56.232;43.944;2022-09-09T15:12:17;1.65;;;1.15;;
69979;SDS011;57318;56.232;43.944;2022-09-09T15:14:46;3.28;;;1.65;;
69979;SDS011;57318;56.232;43.944;2022-09-09T15:17:13;4.63;;;1.92;;
69979;SDS011;57318;56.232;43.944;2022-09-09T15:19:39;6.35;;;2.15;;
69979;SDS011;57318;56.232;43.944;2022-09-09T15:22:05;3.93;;;1.60;;
69979;SDS011;57318;56.232;43.944;2022-09-09T15:24:34;4.65;;;1.63;;
69979;SDS011;57318;56.232;43.944;2022-09-09T15:27:00;2.70;;;1.38;;
69979;SDS011;57318;56.232;43.944;2022-09-09T15:29:27;3.47;;;1.27;;
69979;SDS011;57318;56.232;43.944;2022-09-09T15:31:53;4.83;;;1.43;;
69979;SDS011;57318;56.232;43.944;2022-09-09T15:34:23;2.20;;;1.20;;
69979;SDS011;57318;56.232;43.944;2022-09-09T15:36:48;4.23;;;1.57;;
69979;SDS011;57318;56.232;43.944;2022-09-09T15:39:15;3.17;;;1.40;;
69979;SDS011;57318;56.232;43.944;2022-09-09T15:41:42;2.35;;;1.67;;
69979;SDS011;57318;56.232;43.944;2022-09-09T15:44:09;3.00;;;1.65;;
69979;SDS011;57318;56.232;43.944;2022-09-09T15:46:38;4.05;;;2.30;;
69979;SDS011;57318;56.232;43.944;2022-09-09T15:49:10;11.32;;;2.20;;
69979;SDS011;57318;56.232;43.944;2022-09-09T15:51:39;5.70;;;2.05;;
69979;SDS011;57318;56.232;43.944;2022-09-09T15:54:07;4.43;;;2.05;;
69979;SDS011;57318;56.232;43.944;2022-09-09T15:56:35;4.88;;;1.98;;
69979;SDS011;57318;56.232;43.944;2022-09-09T15:59:01;10.40;;;2.33;;
69979;SDS011;57318;56.232;43.944;2022-09-09T16:01:28;3.20;;;2.00;;
69979;SDS011;57318;56.232;43.944;2022-09-09T16:03:55;3.00;;;1.63;;
69979;SDS011;57318;56.232;43.944;2022-09-09T16:06:22;4.25;;;1.98;;
69979;SDS011;57318;56.232;43.944;2022-09-09T16:08:50;3.75;;;1.70;;
69979;SDS011;57318;56.232;43.944;2022-09-09T16:13:48;8.50;;;1.95;;
69979;SDS011;57318;56.232;43.944;2022-09-09T16:16:15;3.90;;;2.00;;
69979;SDS011;57318;56.232;43.944;2022-09-09T16:18:48;4.20;;;2.30;;
69979;SDS011;57318;56.232;43.944;2022-09-09T16:21:26;5.55;;;2.22;;
69979;SDS011;57318;56.232;43.944;2022-09-09T16:23:57;9.18;;;2.70;;
69979;SDS011;57318;56.232;43.944;2022-09-09T16:26:28;4.20;;;2.53;;
69979;SDS011;57318;56.232;43.944;2022-09-09T16:28:59;6.72;;;2.38;;
69979;SDS011;57318;56.232;43.944;2022-09-09T16:31:26;5.15;;;2.83;;
69979;SDS011;57318;56.232;43.944;2022-09-09T16:33:53;5.95;;;2.83;;
69979;SDS011;57318;56.232;43.944;2022-09-09T16:36:22;6.72;;;2.92;;
69979;SDS011;57318;56.232;43.944;2022-09-09T16:38:56;6.82;;;3.03;;
69979;SDS011;57318;56.232;43.944;2022-09-09T16:41:24;11.70;;;3.10;;
69979;SDS011;57318;56.232;43.944;2022-09-09T16:43:55;6.80;;;3.50;;
69979;SDS011;57318;56.232;43.944;2022-09-09T16:46:23;13.27;;;3.50;;
69979;SDS011;57318;56.232;43.944;2022-09-09T16:48:49;8.32;;;3.55;;
69979;SDS011;57318;56.232;43.944;2022-09-09T16:51:23;8.68;;;3.80;;
69979;SDS011;57318;56.232;43.944;2022-09-09T16:53:54;7.20;;;4.07;;
69979;SDS011;57318;56.232;43.944;2022-09-09T16:56:26;7.95;;;3.35;;
69979;SDS011;57318;56.232;43.944;2022-09-09T16:58:54;8.15;;;3.30;;
69979;SDS011;57318;56.232;43.944;2022-09-09T17:01:39;5.78;;;3.50;;
69979;SDS011;57318;56.232;43.944;2022-09-09T17:04:10;8.32;;;3.30;;
69979;SDS011;57318;56.232;43.944;2022-09-09T17:06:40;5.25;;;2.65;;
69979;SDS011;57318;56.232;43.944;2022-09-09T17:09:09;5.80;;;2.70;;
69979;SDS011;57318;56.232;43.944;2022-09-09T17:11:38;5.38;;;2.80;;
69979;SDS011;57318;56.232;43.944;2022-09-09T17:14:04;5.03;;;3.03;;
69979;SDS011;57318;56.232;43.944;2022-09-09T17:16:33;3.58;;;2.50;;
69979;SDS011;57318;56.232;43.944;2022-09-09T17:18:59;6.07;;;2.80;;
69979;SDS011;57318;56.232;43.944;2022-09-09T17:23:53;7.00;;;2.72;;
69979;SDS011;57318;56.232;43.944;2022-09-09T17:26:22;5.30;;;2.90;;
69979;SDS011;57318;56.232;43.944;2022-09-09T17:28:52;3.90;;;2.40;;
69979;SDS011;57318;56.232;43.944;2022-09-09T17:31:18;3.45;;;2.35;;
69979;SDS011;57318;56.232;43.944;2022-09-09T17:33:45;3.85;;;2.53;;